Time;durP1;ratioP1;P1;durP2;ratioP2;P2;SDS_P1;SDS_P2;PMS_P1;PMS_P2;Temp;Humidity;BMP_temperature;BMP_pressure;BME280_temperature;BME280_humidity;BME280_pressure;Samples;Min_cycle;Max_cycle;Signal;HPM_P1;HPM_P2
2024/01/11 00:01:29;;;;;;;33.65;16.80;;;-5.00;99.90;;;;;;7374785;32;20118;-56
2024/01/11 00:05:31;;;;;;;35.75;17.33;;;-4.90;99.90;;;;;;7355876;32;20152;-56
2024/01/11 00:09:33;;;;;;;34.80;16.42;;;-4.90;99.90;;;;;;7364680;32;20458;-57
2024/01/11 00:13:34;;;;;;;42.40;17.30;;;-4.90;99.90;;;;;;7363304;32;20102;-57
2024/01/11 00:17:36;;;;;;;37.75;16.17;;;-4.90;99.90;;;;;;7357845;32;20170;-56
2024/01/11 00:21:38;;;;;;;34.38;15.15;;;-5.00;99.90;;;;;;7359992;32;20233;-57
2024/01/11 00:25:42;;;;;;;33.25;16.30;;;-5.00;99.90;;;;;;7359569;32;20107;-55
2024/01/11 00:29:44;;;;;;;32.55;15.95;;;-5.00;99.90;;;;;;7360015;32;20143;-56
2024/01/11 00:33:46;;;;;;;36.22;15.25;;;-5.00;99.90;;;;;;7365873;32;20125;-56
2024/01/11 00:37:49;;;;;;;33.95;15.50;;;-5.00;99.90;;;;;;7365625;32;20214;-56
2024/01/11 00:41:51;;;;;;;31.58;14.55;;;-5.00;99.90;;;;;;7356965;32;20489;-55
2024/01/11 00:45:52;;;;;;;34.38;16.65;;;-5.00;99.90;;;;;;7354887;32;20108;-55
2024/01/11 00:49:54;;;;;;;33.13;15.75;;;-5.00;99.90;;;;;;7357682;32;20111;-56
2024/01/11 00:53:56;;;;;;;30.48;16.45;;;-4.90;99.90;;;;;;7356733;32;20111;-57
2024/01/11 00:57:58;;;;;;;31.08;14.80;;;-5.00;99.90;;;;;;7364769;32;20202;-55
2024/01/11 01:01:59;;;;;;;34.03;15.80;;;-5.20;99.90;;;;;;7365479;32;20138;-56
2024/01/11 01:06:02;;;;;;;32.13;15.68;;;-5.10;99.90;;;;;;7363962;32;20099;-56
2024/01/11 01:10:04;;;;;;;34.55;15.60;;;-5.20;99.90;;;;;;7366452;32;20681;-56
2024/01/11 01:14:06;;;;;;;33.40;14.30;;;-5.20;99.90;;;;;;7363303;32;20658;-58
2024/01/11 01:18:08;;;;;;;34.28;14.23;;;-5.30;99.90;;;;;;7361479;32;20194;-57
2024/01/11 01:22:10;;;;;;;33.97;15.95;;;-5.40;99.90;;;;;;7365957;32;20714;-55
2024/01/11 01:26:11;;;;;;;34.15;15.05;;;-5.30;99.90;;;;;;7359496;32;20520;-56
2024/01/11 01:30:13;;;;;;;33.40;16.12;;;-5.20;99.90;;;;;;7361335;32;20096;-56
2024/01/11 01:34:15;;;;;;;31.25;15.15;;;-5.30;99.90;;;;;;7357765;32;20393;-56
2024/01/11 01:38:17;;;;;;;33.45;14.82;;;-5.40;99.90;;;;;;7359816;32;20731;-56
2024/01/11 01:42:20;;;;;;;31.17;16.05;;;-5.50;99.90;;;;;;7356529;32;20103;-56
2024/01/11 01:46:24;;;;;;;30.95;15.60;;;-5.50;99.90;;;;;;7361931;32;20206;-56
2024/01/11 01:50:26;;;;;;;33.58;15.98;;;-5.60;99.90;;;;;;7359473;32;20171;-56
2024/01/11 01:54:28;;;;;;;32.15;16.02;;;-5.60;99.90;;;;;;7367880;32;20266;-55
2024/01/11 01:58:30;;;;;;;34.75;15.05;;;-5.60;99.90;;;;;;7363145;32;20584;-56
2024/01/11 02:02:34;;;;;;;36.28;17.12;;;-5.70;99.90;;;;;;7361028;32;20126;-56
2024/01/11 02:06:37;;;;;;;30.90;15.95;;;-5.80;99.90;;;;;;7364228;32;20642;-56
2024/01/11 02:10:39;;;;;;;32.13;15.02;;;-5.80;99.90;;;;;;7366168;32;20244;-56
2024/01/11 02:14:41;;;;;;;31.10;15.55;;;-5.80;99.90;;;;;;7368614;32;20232;-56
2024/01/11 02:18:48;;;;;;;34.25;15.25;;;-5.80;99.90;;;;;;7370176;32;20432;-57
2024/01/11 02:22:58;;;;;;;31.95;15.45;;;-5.80;99.90;;;;;;7360611;32;20259;-56
2024/01/11 02:27:02;;;;;;;37.33;16.08;;;-5.90;99.90;;;;;;7363504;32;20171;-55
2024/01/11 02:31:03;;;;;;;35.53;15.88;;;-5.90;99.90;;;;;;7367109;32;20605;-56
2024/01/11 02:35:06;;;;;;;33.40;16.25;;;-6.00;99.90;;;;;;7362399;32;20086;-56
2024/01/11 02:39:08;;;;;;;32.70;15.48;;;-6.00;99.90;;;;;;7362709;32;20112;-58
2024/01/11 02:43:10;;;;;;;37.13;15.93;;;-6.00;99.90;;;;;;7366545;32;20103;-57
2024/01/11 02:47:12;;;;;;;34.78;15.75;;;-6.00;99.90;;;;;;7359177;32;20802;-55
2024/01/11 02:51:14;;;;;;;35.63;15.50;;;-6.10;99.90;;;;;;7358163;32;20121;-56
2024/01/11 02:55:15;;;;;;;32.65;16.10;;;-6.10;99.90;;;;;;7362705;32;20637;-56
2024/01/11 02:59:17;;;;;;;37.45;16.73;;;-6.10;99.90;;;;;;7362965;32;20225;-56
2024/01/11 03:03:19;;;;;;;34.40;15.80;;;-6.20;99.90;;;;;;7373605;32;20202;-55
2024/01/11 03:07:21;;;;;;;33.03;15.20;;;-6.20;99.90;;;;;;7360752;32;20122;-55
2024/01/11 03:11:22;;;;;;;34.17;15.77;;;-6.20;99.90;;;;;;7372547;32;20148;-55
2024/01/11 03:15:24;;;;;;;33.70;15.50;;;-6.30;99.90;;;;;;7361263;32;20115;-55
2024/01/11 03:19:27;;;;;;;33.08;15.35;;;-6.30;99.90;;;;;;7363216;32;20321;-55
2024/01/11 03:23:29;;;;;;;35.55;16.73;;;-6.30;99.90;;;;;;7361823;32;20186;-55
2024/01/11 03:27:31;;;;;;;37.20;16.75;;;-6.30;99.90;;;;;;7358218;32;20259;-57
2024/01/11 03:31:32;;;;;;;40.00;17.35;;;-6.30;99.90;;;;;;7358884;32;20313;-56
2024/01/11 03:35:34;;;;;;;34.67;16.58;;;-6.40;99.90;;;;;;7366055;32;20126;-56
2024/01/11 03:39:36;;;;;;;34.40;16.42;;;-6.30;99.90;;;;;;7363258;32;20169;-55
2024/01/11 03:43:38;;;;;;;33.70;16.00;;;-6.50;99.90;;;;;;7363782;32;20159;-56
2024/01/11 03:47:39;;;;;;;32.33;15.30;;;-6.50;99.90;;;;;;7363157;32;20181;-56
2024/01/11 03:51:41;;;;;;;35.15;16.37;;;-6.50;99.90;;;;;;7366786;32;20123;-56
2024/01/11 03:55:43;;;;;;;33.13;16.00;;;-6.50;99.90;;;;;;7358757;32;20164;-55
2024/01/11 03:59:45;;;;;;;34.28;16.35;;;-6.50;99.90;;;;;;7361713;32;20870;-55
2024/01/11 04:03:47;;;;;;;35.38;16.50;;;-6.60;99.90;;;;;;7360028;32;20242;-56
2024/01/11 04:07:48;;;;;;;33.70;15.52;;;-6.60;99.90;;;;;;7367485;32;20146;-56
2024/01/11 04:11:50;;;;;;;35.58;15.80;;;-6.70;99.90;;;;;;7357910;32;20171;-55
2024/01/11 04:15:52;;;;;;;34.60;15.85;;;-6.60;99.90;;;;;;7369189;32;20107;-56
2024/01/11 04:19:53;;;;;;;37.30;16.95;;;-6.60;99.90;;;;;;7360611;32;20277;-55
2024/01/11 04:23:56;;;;;;;36.00;17.00;;;-6.60;99.90;;;;;;7366758;32;20210;-56
2024/01/11 04:27:58;;;;;;;40.83;18.50;;;-6.50;99.90;;;;;;7364378;32;20138;-56
2024/01/11 04:32:01;;;;;;;37.58;18.37;;;-6.40;99.90;;;;;;7360121;32;20587;-55
2024/01/11 04:36:03;;;;;;;38.40;18.45;;;-6.40;99.90;;;;;;7359417;32;20532;-55
2024/01/11 04:40:07;;;;;;;42.20;18.20;;;-6.30;99.90;;;;;;7357952;32;20107;-56
2024/01/11 04:44:10;;;;;;;41.70;19.92;;;-6.20;99.90;;;;;;7357275;32;20110;-56
2024/01/11 04:48:12;;;;;;;46.03;20.02;;;-6.20;99.90;;;;;;7361067;32;20153;-57
2024/01/11 04:52:14;;;;;;;40.15;19.92;;;-6.10;99.90;;;;;;7358142;32;20129;-55
2024/01/11 04:56:17;;;;;;;45.45;20.65;;;-6.10;99.90;;;;;;7356365;32;20546;-56
2024/01/11 05:00:19;;;;;;;45.42;20.55;;;-6.00;99.90;;;;;;7360117;32;20277;-58
2024/01/11 05:04:20;;;;;;;42.05;20.20;;;-6.00;99.90;;;;;;7352340;32;20593;-57
2024/01/11 05:08:22;;;;;;;50.25;21.87;;;-5.90;99.90;;;;;;7359697;32;20690;-57
2024/01/11 05:12:24;;;;;;;46.95;21.00;;;-5.80;99.90;;;;;;7357426;32;20100;-57
2024/01/11 05:16:27;;;;;;;45.00;21.73;;;-5.70;99.90;;;;;;7358008;32;20164;-56
2024/01/11 05:20:29;;;;;;;47.72;20.85;;;-5.70;99.90;;;;;;7358594;32;20130;-56
2024/01/11 05:24:31;;;;;;;43.78;19.70;;;-5.60;99.90;;;;;;7359468;32;20673;-56
2024/01/11 05:28:33;;;;;;;42.03;20.23;;;-5.70;99.90;;;;;;7360480;32;20128;-57
2024/01/11 05:32:34;;;;;;;52.03;21.10;;;-5.70;99.90;;;;;;7366167;32;20131;-55
2024/01/11 05:36:36;;;;;;;41.03;19.70;;;-5.70;99.90;;;;;;7356864;32;20225;-57
2024/01/11 05:40:38;;;;;;;43.45;18.50;;;-5.90;99.90;;;;;;7359265;32;20572;-57
2024/01/11 05:44:40;;;;;;;39.97;19.92;;;-5.90;99.90;;;;;;7366679;32;20603;-56
2024/01/11 05:48:42;;;;;;;37.50;18.95;;;-6.00;99.90;;;;;;7369903;32;20107;-56
2024/01/11 05:52:45;;;;;;;47.00;19.05;;;-6.00;99.90;;;;;;7367109;32;20179;-56
2024/01/11 05:56:46;;;;;;;40.10;19.50;;;-6.20;99.90;;;;;;7370201;32;20260;-57
2024/01/11 06:00:48;;;;;;;42.65;19.08;;;-6.20;99.90;;;;;;7362677;32;20110;-56
2024/01/11 06:04:50;;;;;;;40.85;19.33;;;-6.40;99.90;;;;;;7358870;32;20194;-56
2024/01/11 06:08:52;;;;;;;44.80;20.60;;;-6.50;99.90;;;;;;7354349;32;20677;-56
2024/01/11 06:12:53;;;;;;;38.47;19.25;;;-6.40;99.90;;;;;;7362812;32;20155;-56
2024/01/11 06:16:55;;;;;;;45.28;20.10;;;-6.30;99.90;;;;;;7367356;32;20225;-56
2024/01/11 06:20:57;;;;;;;43.33;21.23;;;-6.20;99.90;;;;;;7357286;32;20103;-56
2024/01/11 06:24:59;;;;;;;45.90;20.25;;;-6.20;99.90;;;;;;7366405;32;20487;-55
2024/01/11 06:29:01;;;;;;;43.35;19.62;;;-6.20;99.90;;;;;;7361303;32;20190;-56
2024/01/11 06:33:03;;;;;;;46.65;19.35;;;-6.20;99.90;;;;;;7363356;32;20111;-56
2024/01/11 06:37:05;;;;;;;41.92;19.73;;;-6.30;99.90;;;;;;7363578;32;20169;-55
2024/01/11 06:41:07;;;;;;;43.45;18.60;;;-6.40;99.90;;;;;;7359512;32;20107;-56
2024/01/11 06:45:09;;;;;;;42.97;19.73;;;-6.50;99.90;;;;;;7362505;32;20198;-56
2024/01/11 06:49:11;;;;;;;38.58;19.73;;;-6.50;99.90;;;;;;7366077;32;20166;-56
2024/01/11 06:53:13;;;;;;;46.50;19.90;;;-6.40;99.90;;;;;;7361530;32;20160;-56
2024/01/11 06:57:15;;;;;;;44.25;19.87;;;-6.50;99.90;;;;;;7363267;32;20099;-56
2024/01/11 07:01:17;;;;;;;45.30;19.50;;;-6.50;99.90;;;;;;7360431;32;20112;-57
2024/01/11 07:05:19;;;;;;;54.53;26.33;;;-6.60;99.90;;;;;;7365915;32;20944;-56
2024/01/11 07:09:21;;;;;;;47.78;21.48;;;-6.60;99.90;;;;;;7352903;32;20282;-56
2024/01/11 07:13:23;;;;;;;43.87;19.40;;;-6.60;99.90;;;;;;7360648;32;20158;-56
2024/01/11 07:17:25;;;;;;;45.58;20.23;;;-6.60;99.90;;;;;;7361347;32;20285;-57
2024/01/11 07:21:31;;;;;;;43.53;20.37;;;-6.60;99.90;;;;;;7369109;32;20107;-56
2024/01/11 07:25:34;;;;;;;40.72;18.02;;;-6.70;99.90;;;;;;7366443;32;20118;-56
2024/01/11 07:29:36;;;;;;;47.03;20.85;;;-6.70;99.90;;;;;;7361937;32;20107;-56
2024/01/11 07:33:38;;;;;;;45.20;20.73;;;-6.70;99.90;;;;;;7364003;32;20477;-56
2024/01/11 07:37:40;;;;;;;40.15;19.50;;;-6.70;99.90;;;;;;7364728;32;20126;-57
2024/01/11 07:41:42;;;;;;;42.72;19.25;;;-6.80;99.90;;;;;;7364034;32;20242;-57
2024/01/11 07:45:43;;;;;;;36.47;18.05;;;-6.80;99.90;;;;;;7360331;32;20107;-57
2024/01/11 07:49:45;;;;;;;38.72;19.58;;;-6.80;99.90;;;;;;7363671;32;20131;-56
2024/01/11 07:53:47;;;;;;;45.12;19.92;;;-6.70;99.90;;;;;;7366616;32;20106;-55
2024/01/11 07:57:49;;;;;;;39.42;19.35;;;-6.70;99.90;;;;;;7365168;32;20107;-55
2024/01/11 08:01:52;;;;;;;44.58;18.80;;;-6.70;99.90;;;;;;7352626;32;20286;-57
2024/01/11 08:05:54;;;;;;;42.70;18.62;;;-6.60;99.90;;;;;;7355052;32;20135;-57
2024/01/11 08:09:56;;;;;;;44.35;18.75;;;-6.80;99.90;;;;;;7364480;32;20110;-57
2024/01/11 08:13:58;;;;;;;42.13;19.33;;;-6.70;99.90;;;;;;7367653;32;20178;-56
2024/01/11 08:18:00;;;;;;;40.00;19.92;;;-6.60;99.90;;;;;;7362272;32;20714;-58
2024/01/11 08:22:02;;;;;;;45.58;20.88;;;-6.50;99.90;;;;;;7361525;32;20752;-57
2024/01/11 08:26:05;;;;;;;47.42;20.15;;;-6.50;99.90;;;;;;7358069;32;20263;-57
2024/01/11 08:30:08;;;;;;;43.55;20.12;;;-6.40;99.90;;;;;;7359987;32;20425;-57
2024/01/11 08:34:10;;;;;;;50.05;22.42;;;-6.30;99.90;;;;;;7367382;32;20193;-57
2024/01/11 08:38:12;;;;;;;47.55;21.60;;;-6.30;99.90;;;;;;7363877;32;20303;-56
2024/01/11 08:42:15;;;;;;;42.08;21.90;;;-6.20;99.90;;;;;;7359807;32;20125;-57
2024/01/11 08:46:26;;;;;;;45.22;21.85;;;-6.20;99.90;;;;;;7365574;32;20119;-57
2024/01/11 08:50:28;;;;;;;42.58;21.35;;;-6.10;99.90;;;;;;7363932;32;20118;-57
2024/01/11 08:54:32;;;;;;;45.75;21.10;;;-6.00;99.90;;;;;;7366116;32;20130;-57
2024/01/11 08:58:48;;;;;;;45.45;21.00;;;-5.90;99.90;;;;;;7352630;32;20110;-56
2024/01/11 09:02:50;;;;;;;42.13;21.37;;;-5.80;99.90;;;;;;7364372;32;20095;-56
2024/01/11 09:06:52;;;;;;;46.22;22.52;;;-5.60;99.90;;;;;;7361429;32;20348;-56
2024/01/11 09:10:54;;;;;;;46.08;21.67;;;-5.50;99.90;;;;;;7356532;32;20249;-57
2024/01/11 09:14:55;;;;;;;45.72;20.67;;;-5.30;99.90;;;;;;7368951;32;20110;-57
2024/01/11 09:18:57;;;;;;;48.42;21.40;;;-5.20;99.90;;;;;;7363525;32;20218;-56
2024/01/11 09:23:02;;;;;;;47.08;22.98;;;-5.20;99.90;;;;;;7360112;32;20125;-56
2024/01/11 09:27:04;;;;;;;50.35;22.17;;;-5.10;99.90;;;;;;7360713;32;20535;-57
2024/01/11 09:31:06;;;;;;;45.85;22.67;;;-4.90;99.90;;;;;;7362455;32;20229;-55
2024/01/11 09:35:08;;;;;;;47.80;22.77;;;-4.80;99.90;;;;;;7365912;32;20148;-58
2024/01/11 09:39:13;;;;;;;49.30;22.93;;;-4.70;99.90;;;;;;7363237;32;20236;-57
2024/01/11 09:43:16;;;;;;;47.00;22.17;;;-4.60;99.90;;;;;;7365237;32;20336;-57
2024/01/11 09:47:18;;;;;;;51.28;23.08;;;-4.40;99.90;;;;;;7367191;32;20452;-55
2024/01/11 09:51:21;;;;;;;45.65;22.67;;;-4.30;99.90;;;;;;7363845;32;20236;-56
2024/01/11 09:55:23;;;;;;;44.58;21.90;;;-4.20;99.90;;;;;;7367140;32;20179;-56
2024/01/11 09:59:25;;;;;;;46.85;22.60;;;-4.10;99.90;;;;;;7368159;32;20225;-57
2024/01/11 10:03:27;;;;;;;48.22;22.35;;;-4.00;99.90;;;;;;7363546;32;20133;-57
2024/01/11 10:07:32;;;;;;;49.42;22.50;;;-3.90;99.90;;;;;;7370570;32;20103;-56
2024/01/11 10:11:34;;;;;;;39.13;22.05;;;-3.80;99.90;;;;;;7367152;32;20099;-56
2024/01/11 10:15:36;;;;;;;48.30;23.48;;;-3.70;99.90;;;;;;7369167;32;20445;-57
2024/01/11 10:19:38;;;;;;;49.55;22.77;;;-3.50;99.90;;;;;;7364131;32;20221;-55
2024/01/11 10:23:41;;;;;;;50.63;23.48;;;-3.40;99.90;;;;;;7362684;32;20131;-57
2024/01/11 10:27:46;;;;;;;46.95;21.85;;;-3.30;99.90;;;;;;7355558;32;20125;-56
2024/01/11 10:31:48;;;;;;;48.95;21.95;;;-3.20;99.90;;;;;;7360137;32;20271;-57
2024/01/11 10:35:50;;;;;;;46.13;20.60;;;-3.10;99.90;;;;;;7368691;32;20135;-56
2024/01/11 10:39:52;;;;;;;44.75;20.55;;;-3.00;99.90;;;;;;7367227;32;20146;-57
2024/01/11 10:43:57;;;;;;;42.22;21.17;;;-2.90;99.90;;;;;;7360293;32;20099;-58
2024/01/11 10:48:04;;;;;;;40.25;20.23;;;-2.70;99.90;;;;;;7364944;32;20133;-57
2024/01/11 10:52:08;;;;;;;42.30;21.58;;;-2.60;99.90;;;;;;7365073;32;20145;-57
2024/01/11 10:56:11;;;;;;;41.30;20.77;;;-2.50;99.90;;;;;;7368015;32;20197;-57
2024/01/11 11:00:16;;;;;;;44.50;20.70;;;-2.40;99.90;;;;;;7359615;32;20103;-58
2024/01/11 11:04:20;;;;;;;48.42;21.02;;;-2.40;99.90;;;;;;7361261;32;20209;-58
2024/01/11 11:08:26;;;;;;;45.17;20.08;;;-2.30;99.90;;;;;;7370858;32;20145;-57
2024/01/11 11:12:28;;;;;;;44.72;23.45;;;-2.20;99.90;;;;;;7365281;32;20143;-56
2024/01/11 11:16:30;;;;;;;45.03;21.75;;;-2.10;99.90;;;;;;7371290;32;20194;-58
2024/01/11 11:20:32;;;;;;;44.30;21.12;;;-2.00;99.90;;;;;;7371107;32;20258;-57
2024/01/11 11:24:35;;;;;;;46.28;21.02;;;-1.90;99.90;;;;;;7366460;32;20187;-58
2024/01/11 11:28:37;;;;;;;40.65;21.40;;;-1.80;99.90;;;;;;7363035;32;20182;-57
2024/01/11 11:32:42;;;;;;;44.67;21.33;;;-1.70;99.90;;;;;;7366124;32;20490;-57
2024/01/11 11:36:46;;;;;;;41.67;21.55;;;-1.60;99.90;;;;;;7366047;32;20119;-58
2024/01/11 11:40:50;;;;;;;40.88;20.17;;;-1.50;99.90;;;;;;7355777;32;20152;-59
2024/01/11 11:44:52;;;;;;;41.20;20.62;;;-1.40;99.90;;;;;;7359810;32;20095;-56
2024/01/11 11:48:55;;;;;;;40.10;19.70;;;-1.30;99.90;;;;;;7362131;32;20824;-59
2024/01/11 11:52:57;;;;;;;47.75;22.27;;;-1.30;99.90;;;;;;7368382;32;20174;-57
2024/01/11 11:56:59;;;;;;;39.90;20.05;;;-1.20;99.90;;;;;;7357095;32;20615;-57
2024/01/11 12:01:02;;;;;;;42.30;20.05;;;-1.10;99.90;;;;;;7361010;32;20125;-57
2024/01/11 12:05:04;;;;;;;45.72;19.85;;;-1.00;99.90;;;;;;7359200;32;20121;-55
2024/01/11 12:09:07;;;;;;;41.53;20.50;;;-0.80;99.90;;;;;;7359800;32;20198;-57
2024/01/11 12:13:09;;;;;;;41.20;20.17;;;-0.80;99.90;;;;;;7366291;32;20122;-57
2024/01/11 12:17:10;;;;;;;43.50;20.95;;;-0.70;99.90;;;;;;7360762;32;20244;-56
2024/01/11 12:21:12;;;;;;;38.17;19.77;;;-0.60;99.90;;;;;;7356722;32;20251;-56
2024/01/11 12:25:14;;;;;;;40.25;18.73;;;-0.50;99.90;;;;;;7357444;32;20231;-56
2024/01/11 12:29:18;;;;;;;34.05;18.35;;;-0.40;99.90;;;;;;7362788;32;20162;-56
2024/01/11 12:33:21;;;;;;;31.60;17.95;;;-0.30;99.90;;;;;;7355788;32;20194;-55
2024/01/11 12:37:24;;;;;;;31.48;17.65;;;-0.20;99.90;;;;;;7360003;32;20103;-57
2024/01/11 12:41:26;;;;;;;36.70;17.77;;;-0.20;99.90;;;;;;7360291;32;20110;-57
2024/01/11 12:45:29;;;;;;;37.38;18.37;;;-0.10;99.90;;;;;;7358271;32;20322;-56
2024/01/11 12:49:31;;;;;;;46.67;19.77;;;0.10;99.90;;;;;;7357838;32;20239;-56
2024/01/11 12:53:33;;;;;;;36.67;19.55;;;0.10;99.90;;;;;;7355486;32;20238;-56
2024/01/11 12:57:35;;;;;;;35.53;18.23;;;0.20;99.90;;;;;;7356700;32;20194;-56
2024/01/11 13:01:40;;;;;;;38.83;18.55;;;0.40;99.90;;;;;;7361451;32;20449;-57
2024/01/11 13:05:43;;;;;;;37.65;18.77;;;0.20;99.90;;;;;;7357271;32;21397;-56
2024/01/11 13:09:45;;;;;;;37.22;19.17;;;0.20;99.90;;;;;;7357445;32;20131;-56
2024/01/11 13:13:47;;;;;;;33.65;18.52;;;0.30;99.90;;;;;;7362145;32;20131;-56
2024/01/11 13:17:49;;;;;;;35.40;18.67;;;0.40;99.90;;;;;;7358326;32;20858;-56
2024/01/11 13:21:52;;;;;;;41.65;19.75;;;0.20;99.90;;;;;;7362712;32;20261;-56
2024/01/11 13:25:53;;;;;;;38.40;19.45;;;0.30;99.90;;;;;;7354396;32;20214;-56
2024/01/11 13:29:55;;;;;;;35.83;18.25;;;0.20;99.90;;;;;;7351656;32;20191;-57
2024/01/11 13:33:57;;;;;;;33.20;17.17;;;0.30;99.90;;;;;;7355421;32;20557;-56
2024/01/11 13:37:59;;;;;;;32.30;17.05;;;0.20;99.90;;;;;;7359213;32;20122;-56
2024/01/11 13:42:03;;;;;;;33.38;16.87;;;0.40;99.90;;;;;;7356622;32;20380;-57
2024/01/11 13:46:05;;;;;;;50.85;24.92;;;0.60;99.90;;;;;;7360767;32;20117;-57
2024/01/11 13:50:07;;;;;;;29.75;16.62;;;0.70;99.90;;;;;;7353172;32;20112;-56
2024/01/11 13:54:09;;;;;;;39.88;16.42;;;0.70;99.90;;;;;;7355921;32;20221;-56
2024/01/11 13:58:12;;;;;;;29.15;14.68;;;0.70;99.90;;;;;;7361853;32;20484;-56
2024/01/11 14:02:14;;;;;;;31.60;15.57;;;0.50;99.90;;;;;;7357815;32;20127;-56
2024/01/11 14:06:16;;;;;;;35.72;14.80;;;0.60;99.90;;;;;;7363563;32;20509;-56
2024/01/11 14:10:18;;;;;;;32.00;15.30;;;0.50;99.90;;;;;;7363055;32;20611;-56
2024/01/11 14:14:20;;;;;;;26.52;13.95;;;0.70;99.90;;;;;;7361588;32;20127;-57
2024/01/11 14:18:22;;;;;;;23.60;12.43;;;0.80;99.90;;;;;;7360986;32;20286;-58
2024/01/11 14:22:25;;;;;;;24.73;13.70;;;1.20;99.90;;;;;;7367990;32;20209;-56
2024/01/11 14:26:28;;;;;;;26.62;12.73;;;1.40;99.90;;;;;;7367620;32;20160;-57
2024/01/11 14:30:29;;;;;;;27.73;13.73;;;1.70;99.90;;;;;;7364003;32;20500;-57
2024/01/11 14:34:31;;;;;;;25.77;13.13;;;1.80;99.90;;;;;;7360200;32;20561;-55
2024/01/11 14:38:33;;;;;;;28.38;14.23;;;1.60;99.90;;;;;;7368186;32;20241;-55
2024/01/11 14:42:35;;;;;;;32.45;14.20;;;1.40;99.90;;;;;;7359945;32;20114;-56
2024/01/11 14:46:37;;;;;;;27.05;13.52;;;1.00;99.90;;;;;;7360908;32;20121;-55
2024/01/11 14:50:38;;;;;;;26.35;13.82;;;0.90;99.90;;;;;;7359363;32;20195;-56
2024/01/11 14:54:40;;;;;;;28.33;14.52;;;0.70;99.90;;;;;;7360202;32;20168;-57
2024/01/11 14:58:42;;;;;;;26.52;13.38;;;0.60;99.90;;;;;;7364971;32;20250;-56
2024/01/11 15:02:45;;;;;;;27.80;14.68;;;0.60;99.90;;;;;;7361039;32;20111;-57
2024/01/11 15:06:48;;;;;;;31.92;15.10;;;0.60;99.90;;;;;;7367060;32;20431;-56
2024/01/11 15:10:50;;;;;;;28.95;15.07;;;0.50;99.90;;;;;;7359639;32;20103;-55
2024/01/11 15:14:52;;;;;;;29.73;14.98;;;0.30;99.90;;;;;;7359943;32;20500;-55
2024/01/11 15:18:54;;;;;;;28.75;14.95;;;0.30;99.90;;;;;;7354849;32;20222;-59
2024/01/11 15:22:55;;;;;;;25.73;13.85;;;0.20;99.90;;;;;;7355800;32;20137;-57
2024/01/11 15:26:57;;;;;;;28.87;13.38;;;0.10;99.90;;;;;;7361369;32;20127;-56
2024/01/11 15:30:59;;;;;;;30.85;14.68;;;0.00;99.90;;;;;;7362264;32;20111;-55
2024/01/11 15:35:03;;;;;;;27.73;14.05;;;0.00;99.90;;;;;;7361114;32;20583;-57
2024/01/11 15:39:05;;;;;;;27.45;14.02;;;-0.20;99.90;;;;;;7361208;32;20099;-58
2024/01/11 15:43:27;;;;;;;29.20;14.27;;;-0.20;99.90;;;;;;7358792;32;20591;-58
2024/01/11 15:47:29;;;;;;;28.42;12.98;;;-0.30;99.90;;;;;;7360282;32;20107;-57
2024/01/11 15:51:31;;;;;;;27.80;13.77;;;-0.40;99.90;;;;;;7357649;32;20305;-57
2024/01/11 15:55:33;;;;;;;30.17;14.05;;;-0.50;99.90;;;;;;7364217;32;20958;-57
2024/01/11 15:59:35;;;;;;;27.42;14.23;;;-0.50;99.90;;;;;;7362285;32;20155;-57
2024/01/11 16:03:37;;;;;;;30.23;13.70;;;-0.50;99.90;;;;;;7352969;32;20282;-58
2024/01/11 16:07:39;;;;;;;24.98;13.02;;;-0.60;99.90;;;;;;7355208;32;20103;-57
2024/01/11 16:11:41;;;;;;;24.48;12.82;;;-0.70;99.90;;;;;;7355597;32;20191;-56
2024/01/11 16:15:43;;;;;;;23.77;12.90;;;-0.70;99.90;;;;;;7358079;32;20141;-56
2024/01/11 16:19:45;;;;;;;23.33;12.48;;;-0.80;99.90;;;;;;7365347;32;20214;-68
2024/01/11 16:23:46;;;;;;;24.52;12.35;;;-0.90;99.90;;;;;;7360703;32;20257;-69
2024/01/11 16:27:48;;;;;;;27.65;14.50;;;-1.00;99.90;;;;;;7354167;32;20237;-69
2024/01/11 16:31:50;;;;;;;23.95;12.35;;;-1.00;99.90;;;;;;7363226;32;20204;-69
2024/01/11 16:35:52;;;;;;;23.05;12.00;;;-0.90;99.90;;;;;;7358235;32;20181;-68
2024/01/11 16:40:00;;;;;;;24.37;11.55;;;-1.00;99.90;;;;;;7358384;32;20253;-57
2024/01/11 16:44:04;;;;;;;23.55;11.00;;;-1.10;99.90;;;;;;7360378;32;20234;-57
2024/01/11 16:48:10;;;;;;;20.80;11.80;;;-1.10;99.90;;;;;;7360907;32;20252;-56
2024/01/11 16:52:11;;;;;;;23.98;11.35;;;-1.10;99.90;;;;;;7353038;32;20299;-57
2024/01/11 16:56:13;;;;;;;22.48;11.02;;;-1.30;99.90;;;;;;7363014;32;20714;-57
2024/01/11 17:00:19;;;;;;;18.75;10.13;;;-1.30;99.90;;;;;;7356295;32;20514;-56
2024/01/11 17:04:21;;;;;;;21.70;9.75;;;-1.10;99.90;;;;;;7357628;32;20115;-57
2024/01/11 17:08:23;;;;;;;22.58;11.50;;;-1.10;99.90;;;;;;7363597;32;20257;-56
2024/01/11 17:12:25;;;;;;;17.58;10.60;;;-1.00;99.90;;;;;;7350911;32;20122;-55
2024/01/11 17:16:27;;;;;;;21.45;11.20;;;-1.00;99.90;;;;;;7359570;32;20494;-56
2024/01/11 17:20:28;;;;;;;22.95;11.98;;;-1.00;99.90;;;;;;7362488;32;20248;-56
2024/01/11 17:24:31;;;;;;;23.75;12.23;;;-1.00;99.90;;;;;;7354376;32;20206;-57
2024/01/11 17:28:33;;;;;;;26.17;13.18;;;-1.00;99.90;;;;;;7359972;32;20090;-56
2024/01/11 17:32:35;;;;;;;28.92;13.88;;;-1.00;99.90;;;;;;7362227;32;20184;-57
2024/01/11 17:36:37;;;;;;;23.27;14.60;;;-1.00;99.90;;;;;;7358597;32;20166;-57
2024/01/11 17:40:39;;;;;;;25.83;13.25;;;-0.90;99.90;;;;;;7365239;32;20217;-57
2024/01/11 17:44:41;;;;;;;23.40;13.60;;;-0.80;99.90;;;;;;7363979;32;20215;-57
2024/01/11 17:48:43;;;;;;;24.87;13.50;;;-0.70;99.90;;;;;;7361295;32;20418;-57
2024/01/11 17:52:45;;;;;;;25.58;15.43;;;-0.60;99.90;;;;;;7363966;32;20125;-57
2024/01/11 17:56:50;;;;;;;24.83;13.82;;;-0.40;99.90;;;;;;7359041;32;20139;-58
2024/01/11 18:00:52;;;;;;;24.95;14.68;;;-0.40;99.90;;;;;;7359209;32;20122;-56
2024/01/11 18:04:54;;;;;;;23.67;13.88;;;-0.30;99.90;;;;;;7360780;32;20182;-57
2024/01/11 18:08:56;;;;;;;29.15;14.40;;;-0.30;99.90;;;;;;7358859;32;20107;-56
2024/01/11 18:12:58;;;;;;;23.80;14.15;;;-0.20;99.90;;;;;;7360526;32;20115;-57
2024/01/11 18:17:00;;;;;;;23.35;13.82;;;-0.10;99.90;;;;;;7366248;32;20106;-57
2024/01/11 18:21:02;;;;;;;25.55;15.02;;;0.00;99.90;;;;;;7354757;32;20208;-56
2024/01/11 18:25:04;;;;;;;25.92;14.93;;;0.00;99.90;;;;;;7359013;32;20261;-56
2024/01/11 18:29:06;;;;;;;27.48;14.70;;;-0.10;99.90;;;;;;7363002;32;20194;-57
2024/01/11 18:33:08;;;;;;;28.23;15.18;;;0.10;99.90;;;;;;7361611;32;20103;-57
2024/01/11 18:37:10;;;;;;;25.15;14.35;;;0.20;99.90;;;;;;7359668;32;20115;-56
2024/01/11 18:41:12;;;;;;;26.08;14.65;;;0.10;99.90;;;;;;7363910;32;20145;-56
2024/01/11 18:45:15;;;;;;;27.25;14.90;;;0.10;99.90;;;;;;7364030;32;20205;-56
2024/01/11 18:49:19;;;;;;;28.92;14.95;;;0.10;99.90;;;;;;7364610;32;20168;-56
2024/01/11 18:53:21;;;;;;;27.83;14.95;;;0.10;99.90;;;;;;7365676;32;20272;-56
2024/01/11 18:57:22;;;;;;;27.80;15.50;;;0.20;99.90;;;;;;7361880;32;20168;-57
2024/01/11 19:01:26;;;;;;;25.67;15.25;;;0.10;99.90;;;;;;7360268;32;20661;-59
2024/01/11 19:05:29;;;;;;;25.80;15.02;;;0.20;99.90;;;;;;7368166;32;20158;-57
2024/01/11 19:09:38;;;;;;;25.77;14.90;;;0.20;99.90;;;;;;7363181;32;20107;-56
2024/01/11 19:13:40;;;;;;;25.48;14.73;;;0.20;99.90;;;;;;7357793;32;20217;-57
2024/01/11 19:17:42;;;;;;;27.50;15.50;;;0.30;99.90;;;;;;7360772;32;20489;-57
2024/01/11 19:21:44;;;;;;;28.25;16.60;;;0.20;99.90;;;;;;7358541;32;20426;-58
2024/01/11 19:25:45;;;;;;;27.13;15.43;;;0.30;99.90;;;;;;7359572;32;20152;-58
2024/01/11 19:29:47;;;;;;;29.45;16.17;;;0.30;99.90;;;;;;7358589;32;20095;-57
2024/01/11 19:33:49;;;;;;;32.75;18.00;;;0.20;99.90;;;;;;7364096;32;20111;-58
2024/01/11 19:37:52;;;;;;;33.63;18.65;;;0.30;99.90;;;;;;7356307;32;20134;-56
2024/01/11 19:41:54;;;;;;;34.65;18.45;;;0.30;99.90;;;;;;7360997;32;20272;-60
2024/01/11 19:45:56;;;;;;;35.63;18.17;;;0.20;99.90;;;;;;7356925;32;20446;-56
2024/01/11 19:50:00;;;;;;;33.38;17.12;;;0.20;99.90;;;;;;7365114;32;20210;-56
2024/01/11 19:54:02;;;;;;;31.05;17.90;;;0.30;99.90;;;;;;7358721;32;20103;-55
2024/01/11 19:58:03;;;;;;;34.47;17.77;;;0.30;99.90;;;;;;7360178;32;20183;-56
2024/01/11 20:02:05;;;;;;;29.75;17.20;;;0.00;99.90;;;;;;7358464;32;20153;-57
2024/01/11 20:06:08;;;;;;;27.17;17.00;;;-0.10;99.90;;;;;;7364343;32;20137;-57
2024/01/11 20:10:10;;;;;;;32.17;17.48;;;0.10;99.90;;;;;;7361206;32;20170;-55
2024/01/11 20:14:12;;;;;;;31.30;18.27;;;0.00;99.90;;;;;;7358758;32;20167;-55
2024/01/11 20:18:14;;;;;;;30.90;18.00;;;0.00;99.90;;;;;;7358046;32;20364;-56
2024/01/11 20:22:17;;;;;;;34.45;18.40;;;-0.10;99.90;;;;;;7362764;32;20153;-56
2024/01/11 20:26:20;;;;;;;30.65;18.25;;;0.00;99.90;;;;;;7360898;32;20760;-56
2024/01/11 20:30:26;;;;;;;;;;;0.00;99.90;;;;;;7358102;32;20221;-57
2024/01/11 20:34:28;;;;;;;33.78;18.50;;;0.10;99.90;;;;;;7356372;32;20135;-57